sensor_id;sensor_type;location;lat;lon;timestamp;temperature;humidity
16825;DHT22;8529;48.108;-1.706;2022-12-07T00:01:09;4.50;99.90
16825;DHT22;8529;48.108;-1.706;2022-12-07T00:03:37;4.50;99.90
16825;DHT22;8529;48.108;-1.706;2022-12-07T00:06:06;4.50;99.90
16825;DHT22;8529;48.108;-1.706;2022-12-07T00:08:34;4.40;99.90
16825;DHT22;8529;48.108;-1.706;2022-12-07T00:11:04;4.50;99.90
16825;DHT22;8529;48.108;-1.706;2022-12-07T00:13:32;4.50;99.90
16825;DHT22;8529;48.108;-1.706;2022-12-07T00:16:01;4.50;99.90
16825;DHT22;8529;48.108;-1.706;2022-12-07T00:18:28;4.60;99.90
16825;DHT22;8529;48.108;-1.706;2022-12-07T00:20:59;4.60;99.90
16825;DHT22;8529;48.108;-1.706;2022-12-07T00:23:26;4.70;99.90
16825;DHT22;8529;48.108;-1.706;2022-12-07T00:25:53;4.70;99.90
16825;DHT22;8529;48.108;-1.706;2022-12-07T00:28:22;4.70;99.90
16825;DHT22;8529;48.108;-1.706;2022-12-07T00:30:49;4.70;99.90
16825;DHT22;8529;48.108;-1.706;2022-12-07T00:33:16;4.70;99.90
16825;DHT22;8529;48.108;-1.706;2022-12-07T00:35:43;4.80;99.90
16825;DHT22;8529;48.108;-1.706;2022-12-07T00:38:09;4.80;99.90
16825;DHT22;8529;48.108;-1.706;2022-12-07T00:40:36;4.80;99.90
16825;DHT22;8529;48.108;-1.706;2022-12-07T00:43:03;4.80;99.90
16825;DHT22;8529;48.108;-1.706;2022-12-07T00:45:32;4.70;99.90
16825;DHT22;8529;48.108;-1.706;2022-12-07T00:47:59;4.70;99.90
16825;DHT22;8529;48.108;-1.706;2022-12-07T00:50:26;4.80;99.90
16825;DHT22;8529;48.108;-1.706;2022-12-07T00:52:53;4.80;99.90
16825;DHT22;8529;48.108;-1.706;2022-12-07T00:55:19;4.70;99.90
16825;DHT22;8529;48.108;-1.706;2022-12-07T00:57:46;4.70;99.90
16825;DHT22;8529;48.108;-1.706;2022-12-07T01:00:14;4.70;99.90
16825;DHT22;8529;48.108;-1.706;2022-12-07T01:02:42;4.70;99.90
16825;DHT22;8529;48.108;-1.706;2022-12-07T01:05:09;4.70;99.90
16825;DHT22;8529;48.108;-1.706;2022-12-07T01:07:36;4.60;99.90
16825;DHT22;8529;48.108;-1.706;2022-12-07T01:10:04;4.60;99.90
16825;DHT22;8529;48.108;-1.706;2022-12-07T01:12:32;4.60;99.90
16825;DHT22;8529;48.108;-1.706;2022-12-07T01:14:59;4.60;99.90
16825;DHT22;8529;48.108;-1.706;2022-12-07T01:17:26;4.50;99.90
16825;DHT22;8529;48.108;-1.706;2022-12-07T01:19:54;4.50;99.90
16825;DHT22;8529;48.108;-1.706;2022-12-07T01:22:21;4.40;99.90
16825;DHT22;8529;48.108;-1.706;2022-12-07T01:24:48;4.40;99.90
16825;DHT22;8529;48.108;-1.706;2022-12-07T01:27:15;4.40;99.90
16825;DHT22;8529;48.108;-1.706;2022-12-07T01:29:42;4.40;99.90
16825;DHT22;8529;48.108;-1.706;2022-12-07T01:32:09;4.30;99.90
16825;DHT22;8529;48.108;-1.706;2022-12-07T01:34:36;4.30;99.90
16825;DHT22;8529;48.108;-1.706;2022-12-07T01:37:04;4.20;99.90
16825;DHT22;8529;48.108;-1.706;2022-12-07T01:39:31;4.20;99.90
16825;DHT22;8529;48.108;-1.706;2022-12-07T01:41:58;4.10;99.90
16825;DHT22;8529;48.108;-1.706;2022-12-07T01:44:26;4.00;99.90
16825;DHT22;8529;48.108;-1.706;2022-12-07T01:46:56;4.00;99.90
16825;DHT22;8529;48.108;-1.706;2022-12-07T01:49:27;4.00;99.90
16825;DHT22;8529;48.108;-1.706;2022-12-07T01:52:01;4.00;99.90
16825;DHT22;8529;48.108;-1.706;2022-12-07T01:54:31;4.00;99.90
16825;DHT22;8529;48.108;-1.706;2022-12-07T01:56:59;4.00;99.90
16825;DHT22;8529;48.108;-1.706;2022-12-07T01:59:27;4.00;99.90
16825;DHT22;8529;48.108;-1.706;2022-12-07T02:01:55;3.90;99.90
16825;DHT22;8529;48.108;-1.706;2022-12-07T02:04:23;3.90;99.90
16825;DHT22;8529;48.108;-1.706;2022-12-07T02:06:50;3.80;99.90
16825;DHT22;8529;48.108;-1.706;2022-12-07T02:09:18;3.80;99.90
16825;DHT22;8529;48.108;-1.706;2022-12-07T02:11:46;3.70;99.90
16825;DHT22;8529;48.108;-1.706;2022-12-07T02:14:13;3.70;99.90
16825;DHT22;8529;48.108;-1.706;2022-12-07T02:16:48;3.70;99.90
16825;DHT22;8529;48.108;-1.706;2022-12-07T02:19:57;3.80;99.90
16825;DHT22;8529;48.108;-1.706;2022-12-07T02:22:45;3.70;99.90
16825;DHT22;8529;48.108;-1.706;2022-12-07T02:25:23;3.70;99.90
16825;DHT22;8529;48.108;-1.706;2022-12-07T02:28:03;3.70;99.90
16825;DHT22;8529;48.108;-1.706;2022-12-07T02:30:35;3.60;99.90
16825;DHT22;8529;48.108;-1.706;2022-12-07T02:33:06;3.60;99.90
16825;DHT22;8529;48.108;-1.706;2022-12-07T02:35:40;3.60;99.90
16825;DHT22;8529;48.108;-1.706;2022-12-07T02:38:14;3.50;99.90
16825;DHT22;8529;48.108;-1.706;2022-12-07T02:40:47;3.50;99.90
16825;DHT22;8529;48.108;-1.706;2022-12-07T02:43:17;3.50;99.90
16825;DHT22;8529;48.108;-1.706;2022-12-07T02:45:47;3.40;99.90
16825;DHT22;8529;48.108;-1.706;2022-12-07T02:48:16;3.30;99.90
16825;DHT22;8529;48.108;-1.706;2022-12-07T02:50:45;3.30;99.90
16825;DHT22;8529;48.108;-1.706;2022-12-07T02:53:28;3.30;99.90
16825;DHT22;8529;48.108;-1.706;2022-12-07T02:55:55;3.30;99.90
16825;DHT22;8529;48.108;-1.706;2022-12-07T02:58:32;3.30;99.90
16825;DHT22;8529;48.108;-1.706;2022-12-07T03:01:08;3.40;99.90
16825;DHT22;8529;48.108;-1.706;2022-12-07T03:03:40;3.40;99.90
16825;DHT22;8529;48.108;-1.706;2022-12-07T03:06:15;3.40;99.90
16825;DHT22;8529;48.108;-1.706;2022-12-07T03:08:52;3.30;99.90
16825;DHT22;8529;48.108;-1.706;2022-12-07T03:11:24;3.30;99.90
16825;DHT22;8529;48.108;-1.706;2022-12-07T03:13:59;3.30;99.90
16825;DHT22;8529;48.108;-1.706;2022-12-07T03:16:33;3.30;99.90
16825;DHT22;8529;48.108;-1.706;2022-12-07T03:19:04;3.30;99.90
16825;DHT22;8529;48.108;-1.706;2022-12-07T03:21:35;3.30;99.90
16825;DHT22;8529;48.108;-1.706;2022-12-07T03:24:08;3.30;99.90
16825;DHT22;8529;48.108;-1.706;2022-12-07T03:26:39;3.30;99.90
16825;DHT22;8529;48.108;-1.706;2022-12-07T03:29:10;3.30;99.90
16825;DHT22;8529;48.108;-1.706;2022-12-07T03:31:42;3.30;99.90
16825;DHT22;8529;48.108;-1.706;2022-12-07T03:34:14;3.30;99.90
16825;DHT22;8529;48.108;-1.706;2022-12-07T03:36:46;3.30;99.90
16825;DHT22;8529;48.108;-1.706;2022-12-07T03:39:19;3.30;99.90
16825;DHT22;8529;48.108;-1.706;2022-12-07T03:41:49;3.20;99.90
16825;DHT22;8529;48.108;-1.706;2022-12-07T03:44:16;3.20;99.90
16825;DHT22;8529;48.108;-1.706;2022-12-07T03:46:50;3.20;99.90
16825;DHT22;8529;48.108;-1.706;2022-12-07T03:49:23;3.20;99.90
16825;DHT22;8529;48.108;-1.706;2022-12-07T03:51:56;3.10;99.90
16825;DHT22;8529;48.108;-1.706;2022-12-07T03:54:28;3.10;99.90
16825;DHT22;8529;48.108;-1.706;2022-12-07T03:56:57;3.10;99.90
16825;DHT22;8529;48.108;-1.706;2022-12-07T03:59:25;3.10;99.90
16825;DHT22;8529;48.108;-1.706;2022-12-07T04:01:56;3.10;99.90
16825;DHT22;8529;48.108;-1.706;2022-12-07T04:04:24;3.10;99.90
16825;DHT22;8529;48.108;-1.706;2022-12-07T04:06:52;3.10;99.90
16825;DHT22;8529;48.108;-1.706;2022-12-07T04:09:19;3.00;99.90
16825;DHT22;8529;48.108;-1.706;2022-12-07T04:11:45;3.00;99.90
16825;DHT22;8529;48.108;-1.706;2022-12-07T04:14:13;2.90;99.90
16825;DHT22;8529;48.108;-1.706;2022-12-07T04:16:46;3.00;99.90
16825;DHT22;8529;48.108;-1.706;2022-12-07T04:19:16;3.00;99.90
16825;DHT22;8529;48.108;-1.706;2022-12-07T04:21:43;3.00;99.90
16825;DHT22;8529;48.108;-1.706;2022-12-07T04:24:11;3.00;99.90
16825;DHT22;8529;48.108;-1.706;2022-12-07T04:26:38;3.00;99.90
16825;DHT22;8529;48.108;-1.706;2022-12-07T04:29:05;2.90;99.90
16825;DHT22;8529;48.108;-1.706;2022-12-07T04:31:32;2.90;99.90
16825;DHT22;8529;48.108;-1.706;2022-12-07T04:33:59;2.90;99.90
16825;DHT22;8529;48.108;-1.706;2022-12-07T04:36:27;2.90;99.90
16825;DHT22;8529;48.108;-1.706;2022-12-07T04:38:55;2.90;99.90
16825;DHT22;8529;48.108;-1.706;2022-12-07T04:41:23;2.90;99.90
16825;DHT22;8529;48.108;-1.706;2022-12-07T04:43:53;2.90;99.90
16825;DHT22;8529;48.108;-1.706;2022-12-07T04:46:21;2.90;99.90
16825;DHT22;8529;48.108;-1.706;2022-12-07T04:48:48;2.90;99.90
16825;DHT22;8529;48.108;-1.706;2022-12-07T04:51:18;3.00;99.90
16825;DHT22;8529;48.108;-1.706;2022-12-07T04:53:47;2.90;99.90
16825;DHT22;8529;48.108;-1.706;2022-12-07T04:56:15;2.90;99.90
16825;DHT22;8529;48.108;-1.706;2022-12-07T04:58:43;2.90;99.90
16825;DHT22;8529;48.108;-1.706;2022-12-07T05:01:10;2.90;99.90
16825;DHT22;8529;48.108;-1.706;2022-12-07T05:03:37;2.90;99.90
16825;DHT22;8529;48.108;-1.706;2022-12-07T05:06:05;2.80;99.90
16825;DHT22;8529;48.108;-1.706;2022-12-07T05:08:33;2.70;99.90
16825;DHT22;8529;48.108;-1.706;2022-12-07T05:11:01;2.60;99.90
16825;DHT22;8529;48.108;-1.706;2022-12-07T05:13:29;2.50;99.90
16825;DHT22;8529;48.108;-1.706;2022-12-07T05:15:56;2.60;99.90
16825;DHT22;8529;48.108;-1.706;2022-12-07T05:18:23;2.60;99.90
16825;DHT22;8529;48.108;-1.706;2022-12-07T05:20:51;2.70;99.90
16825;DHT22;8529;48.108;-1.706;2022-12-07T05:23:18;2.70;99.90
16825;DHT22;8529;48.108;-1.706;2022-12-07T05:25:45;2.70;99.90
16825;DHT22;8529;48.108;-1.706;2022-12-07T05:28:14;2.70;99.90
16825;DHT22;8529;48.108;-1.706;2022-12-07T05:30:41;2.60;99.90
16825;DHT22;8529;48.108;-1.706;2022-12-07T05:33:08;2.60;99.90
16825;DHT22;8529;48.108;-1.706;2022-12-07T05:35:35;2.50;99.90
16825;DHT22;8529;48.108;-1.706;2022-12-07T05:38:03;2.60;99.90
16825;DHT22;8529;48.108;-1.706;2022-12-07T05:40:30;2.60;99.90
16825;DHT22;8529;48.108;-1.706;2022-12-07T05:42:57;2.50;99.90
16825;DHT22;8529;48.108;-1.706;2022-12-07T05:45:25;2.40;99.90
16825;DHT22;8529;48.108;-1.706;2022-12-07T05:47:52;2.20;99.90
16825;DHT22;8529;48.108;-1.706;2022-12-07T05:50:19;2.20;99.90
16825;DHT22;8529;48.108;-1.706;2022-12-07T05:52:46;2.20;99.90
16825;DHT22;8529;48.108;-1.706;2022-12-07T05:55:13;2.30;99.90
16825;DHT22;8529;48.108;-1.706;2022-12-07T05:57:40;2.30;99.90
16825;DHT22;8529;48.108;-1.706;2022-12-07T06:00:30;2.40;99.90
16825;DHT22;8529;48.108;-1.706;2022-12-07T06:02:55;2.40;99.90
16825;DHT22;8529;48.108;-1.706;2022-12-07T06:05:23;2.40;99.90
16825;DHT22;8529;48.108;-1.706;2022-12-07T06:07:50;2.50;99.90
16825;DHT22;8529;48.108;-1.706;2022-12-07T06:10:16;2.50;99.90
16825;DHT22;8529;48.108;-1.706;2022-12-07T06:12:43;2.50;99.90
16825;DHT22;8529;48.108;-1.706;2022-12-07T06:15:11;2.50;99.90
16825;DHT22;8529;48.108;-1.706;2022-12-07T06:17:40;2.50;99.90
16825;DHT22;8529;48.108;-1.706;2022-12-07T06:20:07;2.50;99.90
16825;DHT22;8529;48.108;-1.706;2022-12-07T06:22:35;2.40;99.90
16825;DHT22;8529;48.108;-1.706;2022-12-07T06:25:02;2.50;99.90
16825;DHT22;8529;48.108;-1.706;2022-12-07T06:27:29;2.50;99.90
16825;DHT22;8529;48.108;-1.706;2022-12-07T06:29:58;2.40;99.90
16825;DHT22;8529;48.108;-1.706;2022-12-07T06:32:25;2.40;99.90
16825;DHT22;8529;48.108;-1.706;2022-12-07T06:34:53;2.40;99.90
16825;DHT22;8529;48.108;-1.706;2022-12-07T06:37:20;2.40;99.90
16825;DHT22;8529;48.108;-1.706;2022-12-07T06:39:47;2.40;99.90
16825;DHT22;8529;48.108;-1.706;2022-12-07T06:42:14;2.30;99.90
16825;DHT22;8529;48.108;-1.706;2022-12-07T06:44:41;2.30;99.90
16825;DHT22;8529;48.108;-1.706;2022-12-07T06:47:08;2.30;99.90
16825;DHT22;8529;48.108;-1.706;2022-12-07T06:49:37;2.30;99.90
16825;DHT22;8529;48.108;-1.706;2022-12-07T06:52:05;2.30;99.90
16825;DHT22;8529;48.108;-1.706;2022-12-07T06:54:32;2.30;99.90
16825;DHT22;8529;48.108;-1.706;2022-12-07T06:56:59;2.30;99.90
16825;DHT22;8529;48.108;-1.706;2022-12-07T06:59:26;2.40;99.90
16825;DHT22;8529;48.108;-1.706;2022-12-07T07:01:53;2.40;99.90
16825;DHT22;8529;48.108;-1.706;2022-12-07T07:04:20;2.40;99.90
16825;DHT22;8529;48.108;-1.706;2022-12-07T07:06:47;2.50;99.90
16825;DHT22;8529;48.108;-1.706;2022-12-07T07:09:15;2.40;99.90
16825;DHT22;8529;48.108;-1.706;2022-12-07T07:11:42;2.50;99.90
16825;DHT22;8529;48.108;-1.706;2022-12-07T07:14:09;2.50;99.90
16825;DHT22;8529;48.108;-1.706;2022-12-07T07:16:36;2.50;99.90
16825;DHT22;8529;48.108;-1.706;2022-12-07T07:19:03;2.50;99.90
16825;DHT22;8529;48.108;-1.706;2022-12-07T07:21:30;2.50;99.90
16825;DHT22;8529;48.108;-1.706;2022-12-07T07:23:57;2.50;99.90
16825;DHT22;8529;48.108;-1.706;2022-12-07T07:26:25;2.50;99.90
16825;DHT22;8529;48.108;-1.706;2022-12-07T07:28:52;2.60;99.90
16825;DHT22;8529;48.108;-1.706;2022-12-07T07:31:19;2.60;99.90
16825;DHT22;8529;48.108;-1.706;2022-12-07T07:33:46;2.60;99.90
16825;DHT22;8529;48.108;-1.706;2022-12-07T07:36:13;2.60;99.90
16825;DHT22;8529;48.108;-1.706;2022-12-07T07:38:40;2.60;99.90
16825;DHT22;8529;48.108;-1.706;2022-12-07T07:41:07;2.60;99.90
16825;DHT22;8529;48.108;-1.706;2022-12-07T07:43:35;2.60;99.90
16825;DHT22;8529;48.108;-1.706;2022-12-07T07:46:02;2.60;99.90
16825;DHT22;8529;48.108;-1.706;2022-12-07T07:48:30;2.50;99.90
16825;DHT22;8529;48.108;-1.706;2022-12-07T07:50:56;2.60;99.90
16825;DHT22;8529;48.108;-1.706;2022-12-07T07:53:23;2.70;99.90
16825;DHT22;8529;48.108;-1.706;2022-12-07T07:55:51;2.70;99.90
16825;DHT22;8529;48.108;-1.706;2022-12-07T07:58:19;2.80;99.90
16825;DHT22;8529;48.108;-1.706;2022-12-07T08:00:47;2.80;99.90
16825;DHT22;8529;48.108;-1.706;2022-12-07T08:03:14;2.80;99.90
16825;DHT22;8529;48.108;-1.706;2022-12-07T08:05:41;2.80;99.90
16825;DHT22;8529;48.108;-1.706;2022-12-07T08:08:08;2.80;99.90
16825;DHT22;8529;48.108;-1.706;2022-12-07T08:10:35;2.80;99.90
16825;DHT22;8529;48.108;-1.706;2022-12-07T08:13:03;2.80;99.90
16825;DHT22;8529;48.108;-1.706;2022-12-07T08:15:40;2.80;99.90
16825;DHT22;8529;48.108;-1.706;2022-12-07T08:18:09;2.80;99.90
16825;DHT22;8529;48.108;-1.706;2022-12-07T08:20:36;2.80;99.90
16825;DHT22;8529;48.108;-1.706;2022-12-07T08:23:04;2.80;99.90
16825;DHT22;8529;48.108;-1.706;2022-12-07T08:25:31;2.90;99.90
16825;DHT22;8529;48.108;-1.706;2022-12-07T08:27:59;2.90;99.90
16825;DHT22;8529;48.108;-1.706;2022-12-07T08:30:27;3.00;99.90
16825;DHT22;8529;48.108;-1.706;2022-12-07T08:32:54;3.00;99.90
16825;DHT22;8529;48.108;-1.706;2022-12-07T08:35:22;3.00;99.90
16825;DHT22;8529;48.108;-1.706;2022-12-07T08:37:50;3.00;99.90
16825;DHT22;8529;48.108;-1.706;2022-12-07T08:40:17;3.10;99.90
16825;DHT22;8529;48.108;-1.706;2022-12-07T08:42:47;3.10;99.90
16825;DHT22;8529;48.108;-1.706;2022-12-07T08:45:16;3.10;99.90
16825;DHT22;8529;48.108;-1.706;2022-12-07T08:47:45;3.20;99.90
16825;DHT22;8529;48.108;-1.706;2022-12-07T08:50:14;3.20;99.90
16825;DHT22;8529;48.108;-1.706;2022-12-07T08:52:43;3.30;99.90
16825;DHT22;8529;48.108;-1.706;2022-12-07T08:55:11;3.30;99.90
16825;DHT22;8529;48.108;-1.706;2022-12-07T08:57:39;3.30;99.90
16825;DHT22;8529;48.108;-1.706;2022-12-07T09:00:09;3.30;99.90
16825;DHT22;8529;48.108;-1.706;2022-12-07T09:02:36;3.20;99.90
16825;DHT22;8529;48.108;-1.706;2022-12-07T09:05:04;3.30;99.90
16825;DHT22;8529;48.108;-1.706;2022-12-07T09:07:32;3.30;99.90
16825;DHT22;8529;48.108;-1.706;2022-12-07T09:10:02;3.30;99.90
16825;DHT22;8529;48.108;-1.706;2022-12-07T09:12:29;3.20;99.90
16825;DHT22;8529;48.108;-1.706;2022-12-07T09:14:56;3.10;99.90
16825;DHT22;8529;48.108;-1.706;2022-12-07T09:17:24;2.90;99.90
16825;DHT22;8529;48.108;-1.706;2022-12-07T09:19:51;2.90;99.90
16825;DHT22;8529;48.108;-1.706;2022-12-07T09:22:17;3.00;99.90
16825;DHT22;8529;48.108;-1.706;2022-12-07T09:24:45;3.00;99.90
16825;DHT22;8529;48.108;-1.706;2022-12-07T09:27:13;3.10;99.90
16825;DHT22;8529;48.108;-1.706;2022-12-07T09:29:41;3.10;99.90
16825;DHT22;8529;48.108;-1.706;2022-12-07T09:32:08;3.10;99.90
16825;DHT22;8529;48.108;-1.706;2022-12-07T09:34:35;3.10;99.90
16825;DHT22;8529;48.108;-1.706;2022-12-07T09:37:02;3.20;99.90
16825;DHT22;8529;48.108;-1.706;2022-12-07T09:39:30;3.20;99.90
16825;DHT22;8529;48.108;-1.706;2022-12-07T09:41:59;3.20;99.90
16825;DHT22;8529;48.108;-1.706;2022-12-07T09:44:30;3.20;99.90
16825;DHT22;8529;48.108;-1.706;2022-12-07T09:46:58;3.30;99.90
16825;DHT22;8529;48.108;-1.706;2022-12-07T09:49:28;3.30;99.90
16825;DHT22;8529;48.108;-1.706;2022-12-07T09:52:03;3.30;99.90
16825;DHT22;8529;48.108;-1.706;2022-12-07T09:54:46;3.30;99.90
16825;DHT22;8529;48.108;-1.706;2022-12-07T09:57:13;3.30;99.90
16825;DHT22;8529;48.108;-1.706;2022-12-07T09:59:41;3.30;99.90
16825;DHT22;8529;48.108;-1.706;2022-12-07T10:02:24;3.30;99.90
16825;DHT22;8529;48.108;-1.706;2022-12-07T10:04:51;3.30;99.90
16825;DHT22;8529;48.108;-1.706;2022-12-07T10:07:18;3.30;99.90
16825;DHT22;8529;48.108;-1.706;2022-12-07T10:09:45;3.40;99.90
16825;DHT22;8529;48.108;-1.706;2022-12-07T10:12:12;3.50;99.90
16825;DHT22;8529;48.108;-1.706;2022-12-07T10:14:54;3.50;99.90
16825;DHT22;8529;48.108;-1.706;2022-12-07T10:17:31;3.50;99.90
16825;DHT22;8529;48.108;-1.706;2022-12-07T10:20:20;3.40;99.90
16825;DHT22;8529;48.108;-1.706;2022-12-07T10:22:59;3.40;99.90
16825;DHT22;8529;48.108;-1.706;2022-12-07T10:25:29;3.50;99.90
16825;DHT22;8529;48.108;-1.706;2022-12-07T10:28:00;3.50;99.90
16825;DHT22;8529;48.108;-1.706;2022-12-07T10:30:29;3.60;99.90
16825;DHT22;8529;48.108;-1.706;2022-12-07T10:32:56;3.70;99.90
16825;DHT22;8529;48.108;-1.706;2022-12-07T10:35:26;3.80;99.90
16825;DHT22;8529;48.108;-1.706;2022-12-07T10:37:54;3.90;99.90
16825;DHT22;8529;48.108;-1.706;2022-12-07T10:40:39;3.80;99.90
16825;DHT22;8529;48.108;-1.706;2022-12-07T10:43:18;3.80;99.90
16825;DHT22;8529;48.108;-1.706;2022-12-07T10:46:13;3.80;99.90
16825;DHT22;8529;48.108;-1.706;2022-12-07T10:48:51;3.90;99.90
16825;DHT22;8529;48.108;-1.706;2022-12-07T10:51:26;3.90;99.90
16825;DHT22;8529;48.108;-1.706;2022-12-07T10:54:03;4.00;99.90
16825;DHT22;8529;48.108;-1.706;2022-12-07T10:56:53;4.00;99.90
16825;DHT22;8529;48.108;-1.706;2022-12-07T10:59:46;4.00;99.90
16825;DHT22;8529;48.108;-1.706;2022-12-07T11:02:32;4.10;99.90
16825;DHT22;8529;48.108;-1.706;2022-12-07T11:05:13;4.00;99.90
16825;DHT22;8529;48.108;-1.706;2022-12-07T11:07:49;4.10;99.90
16825;DHT22;8529;48.108;-1.706;2022-12-07T11:10:21;4.00;99.90
16825;DHT22;8529;48.108;-1.706;2022-12-07T11:13:02;4.00;99.90
16825;DHT22;8529;48.108;-1.706;2022-12-07T11:15:49;4.00;99.90
16825;DHT22;8529;48.108;-1.706;2022-12-07T11:18:26;3.90;99.90
16825;DHT22;8529;48.108;-1.706;2022-12-07T11:21:03;3.80;99.90
16825;DHT22;8529;48.108;-1.706;2022-12-07T11:23:44;3.80;99.90
16825;DHT22;8529;48.108;-1.706;2022-12-07T11:26:21;3.80;99.90
16825;DHT22;8529;48.108;-1.706;2022-12-07T11:29:05;3.90;99.90
16825;DHT22;8529;48.108;-1.706;2022-12-07T11:31:41;3.90;99.90
16825;DHT22;8529;48.108;-1.706;2022-12-07T11:34:21;3.90;99.90
16825;DHT22;8529;48.108;-1.706;2022-12-07T11:36:52;4.00;99.90
16825;DHT22;8529;48.108;-1.706;2022-12-07T11:39:26;4.00;99.90
16825;DHT22;8529;48.108;-1.706;2022-12-07T11:42:00;4.00;99.90
16825;DHT22;8529;48.108;-1.706;2022-12-07T11:44:32;4.00;99.90
16825;DHT22;8529;48.108;-1.706;2022-12-07T11:47:05;4.00;99.90
16825;DHT22;8529;48.108;-1.706;2022-12-07T11:49:44;4.00;99.90
16825;DHT22;8529;48.108;-1.706;2022-12-07T11:52:22;3.90;99.90
16825;DHT22;8529;48.108;-1.706;2022-12-07T11:54:52;4.00;99.90
16825;DHT22;8529;48.108;-1.706;2022-12-07T11:57:26;4.10;99.90
16825;DHT22;8529;48.108;-1.706;2022-12-07T11:59:59;4.10;99.90
16825;DHT22;8529;48.108;-1.706;2022-12-07T12:02:32;4.20;99.90
16825;DHT22;8529;48.108;-1.706;2022-12-07T12:05:12;4.30;99.90
16825;DHT22;8529;48.108;-1.706;2022-12-07T12:07:41;4.30;99.90
16825;DHT22;8529;48.108;-1.706;2022-12-07T12:10:17;4.30;99.90
16825;DHT22;8529;48.108;-1.706;2022-12-07T12:13:19;4.30;99.90
16825;DHT22;8529;48.108;-1.706;2022-12-07T12:16:01;4.30;99.90
16825;DHT22;8529;48.108;-1.706;2022-12-07T12:18:45;4.30;99.90
16825;DHT22;8529;48.108;-1.706;2022-12-07T12:21:18;4.40;99.90
16825;DHT22;8529;48.108;-1.706;2022-12-07T12:23:50;4.40;99.90
16825;DHT22;8529;48.108;-1.706;2022-12-07T12:26:20;4.30;99.90
16825;DHT22;8529;48.108;-1.706;2022-12-07T12:28:54;4.20;99.90
16825;DHT22;8529;48.108;-1.706;2022-12-07T12:31:37;4.20;99.90
16825;DHT22;8529;48.108;-1.706;2022-12-07T12:34:32;4.20;99.90
16825;DHT22;8529;48.108;-1.706;2022-12-07T12:37:00;4.20;99.90
16825;DHT22;8529;48.108;-1.706;2022-12-07T12:39:27;4.30;99.90
16825;DHT22;8529;48.108;-1.706;2022-12-07T12:41:57;4.40;99.90
16825;DHT22;8529;48.108;-1.706;2022-12-07T12:47:52;4.60;99.90
16825;DHT22;8529;48.108;-1.706;2022-12-07T12:50:21;4.60;99.90
16825;DHT22;8529;48.108;-1.706;2022-12-07T12:53:20;4.70;99.90
16825;DHT22;8529;48.108;-1.706;2022-12-07T12:58:47;4.80;99.90
16825;DHT22;8529;48.108;-1.706;2022-12-07T13:01:44;4.70;99.90
16825;DHT22;8529;48.108;-1.706;2022-12-07T13:04:40;4.70;99.90
16825;DHT22;8529;48.108;-1.706;2022-12-07T13:07:49;4.70;99.90
16825;DHT22;8529;48.108;-1.706;2022-12-07T13:13:33;4.80;99.90
16825;DHT22;8529;48.108;-1.706;2022-12-07T13:16:40;4.90;99.90
16825;DHT22;8529;48.108;-1.706;2022-12-07T13:22:49;5.10;99.90
16825;DHT22;8529;48.108;-1.706;2022-12-07T13:25:31;5.20;99.90
16825;DHT22;8529;48.108;-1.706;2022-12-07T13:28:04;5.30;99.90
16825;DHT22;8529;48.108;-1.706;2022-12-07T13:30:45;5.50;99.90
16825;DHT22;8529;48.108;-1.706;2022-12-07T13:33:13;5.60;99.90
16825;DHT22;8529;48.108;-1.706;2022-12-07T13:35:41;5.70;99.90
16825;DHT22;8529;48.108;-1.706;2022-12-07T13:38:22;5.60;99.90
16825;DHT22;8529;48.108;-1.706;2022-12-07T13:41:02;5.50;99.90
16825;DHT22;8529;48.108;-1.706;2022-12-07T13:43:30;5.50;99.90
16825;DHT22;8529;48.108;-1.706;2022-12-07T13:45:57;5.50;99.90
16825;DHT22;8529;48.108;-1.706;2022-12-07T13:48:31;5.60;99.90
16825;DHT22;8529;48.108;-1.706;2022-12-07T13:51:01;5.60;99.90
16825;DHT22;8529;48.108;-1.706;2022-12-07T13:53:28;5.60;99.90
16825;DHT22;8529;48.108;-1.706;2022-12-07T13:55:56;5.60;99.90
16825;DHT22;8529;48.108;-1.706;2022-12-07T13:58:25;5.50;99.90
16825;DHT22;8529;48.108;-1.706;2022-12-07T14:00:53;5.50;99.90
16825;DHT22;8529;48.108;-1.706;2022-12-07T14:03:30;5.50;99.90
16825;DHT22;8529;48.108;-1.706;2022-12-07T14:06:07;5.50;99.90
16825;DHT22;8529;48.108;-1.706;2022-12-07T14:08:38;5.50;99.90
16825;DHT22;8529;48.108;-1.706;2022-12-07T14:11:08;5.50;99.90
16825;DHT22;8529;48.108;-1.706;2022-12-07T14:13:39;5.50;99.90
16825;DHT22;8529;48.108;-1.706;2022-12-07T14:16:22;5.50;99.90
16825;DHT22;8529;48.108;-1.706;2022-12-07T14:18:50;5.50;99.90
16825;DHT22;8529;48.108;-1.706;2022-12-07T14:21:18;5.50;99.90
16825;DHT22;8529;48.108;-1.706;2022-12-07T14:24:09;5.50;99.90
16825;DHT22;8529;48.108;-1.706;2022-12-07T14:26:38;5.60;99.90
16825;DHT22;8529;48.108;-1.706;2022-12-07T14:29:30;5.60;99.90
16825;DHT22;8529;48.108;-1.706;2022-12-07T14:32:04;5.60;99.90
16825;DHT22;8529;48.108;-1.706;2022-12-07T14:34:40;5.60;99.90
16825;DHT22;8529;48.108;-1.706;2022-12-07T14:37:08;5.60;99.90
16825;DHT22;8529;48.108;-1.706;2022-12-07T14:39:36;5.60;99.90
16825;DHT22;8529;48.108;-1.706;2022-12-07T14:42:03;5.70;99.90
16825;DHT22;8529;48.108;-1.706;2022-12-07T14:44:31;5.60;99.90
16825;DHT22;8529;48.108;-1.706;2022-12-07T14:46:58;5.60;99.90
16825;DHT22;8529;48.108;-1.706;2022-12-07T14:49:25;5.70;99.90
16825;DHT22;8529;48.108;-1.706;2022-12-07T14:51:52;5.60;99.90
16825;DHT22;8529;48.108;-1.706;2022-12-07T14:54:20;5.70;99.90
16825;DHT22;8529;48.108;-1.706;2022-12-07T14:56:49;5.70;99.90
16825;DHT22;8529;48.108;-1.706;2022-12-07T14:59:17;5.70;99.90
16825;DHT22;8529;48.108;-1.706;2022-12-07T15:01:46;5.70;99.90
16825;DHT22;8529;48.108;-1.706;2022-12-07T15:04:13;5.70;99.90
16825;DHT22;8529;48.108;-1.706;2022-12-07T15:06:40;5.80;99.90
16825;DHT22;8529;48.108;-1.706;2022-12-07T15:09:10;5.80;99.90
16825;DHT22;8529;48.108;-1.706;2022-12-07T15:11:37;5.80;99.90
16825;DHT22;8529;48.108;-1.706;2022-12-07T15:14:04;5.80;99.90
16825;DHT22;8529;48.108;-1.706;2022-12-07T15:16:40;5.80;99.90
16825;DHT22;8529;48.108;-1.706;2022-12-07T15:19:12;5.70;99.90
16825;DHT22;8529;48.108;-1.706;2022-12-07T15:21:40;5.60;99.90
16825;DHT22;8529;48.108;-1.706;2022-12-07T15:24:09;5.60;99.90
16825;DHT22;8529;48.108;-1.706;2022-12-07T15:26:37;5.60;99.90
16825;DHT22;8529;48.108;-1.706;2022-12-07T15:29:04;5.60;99.90
16825;DHT22;8529;48.108;-1.706;2022-12-07T15:31:32;5.50;99.90
16825;DHT22;8529;48.108;-1.706;2022-12-07T15:33:59;5.40;99.90
16825;DHT22;8529;48.108;-1.706;2022-12-07T15:36:30;5.40;99.90
16825;DHT22;8529;48.108;-1.706;2022-12-07T15:38:57;5.30;99.90
16825;DHT22;8529;48.108;-1.706;2022-12-07T15:41:25;5.20;99.90
16825;DHT22;8529;48.108;-1.706;2022-12-07T15:43:52;5.20;99.90
16825;DHT22;8529;48.108;-1.706;2022-12-07T15:46:38;5.10;99.90
16825;DHT22;8529;48.108;-1.706;2022-12-07T15:49:08;5.10;99.90
16825;DHT22;8529;48.108;-1.706;2022-12-07T15:51:37;5.10;99.90
16825;DHT22;8529;48.108;-1.706;2022-12-07T15:54:04;5.10;99.90
16825;DHT22;8529;48.108;-1.706;2022-12-07T15:56:31;5.20;99.90
16825;DHT22;8529;48.108;-1.706;2022-12-07T15:58:58;5.20;99.90
16825;DHT22;8529;48.108;-1.706;2022-12-07T16:01:25;5.20;99.90
16825;DHT22;8529;48.108;-1.706;2022-12-07T16:03:52;5.20;99.90
16825;DHT22;8529;48.108;-1.706;2022-12-07T16:06:19;5.10;99.90
16825;DHT22;8529;48.108;-1.706;2022-12-07T16:08:48;5.10;99.90
16825;DHT22;8529;48.108;-1.706;2022-12-07T16:11:15;4.90;99.90
16825;DHT22;8529;48.108;-1.706;2022-12-07T16:13:42;4.80;99.90
16825;DHT22;8529;48.108;-1.706;2022-12-07T16:16:12;4.70;99.90
16825;DHT22;8529;48.108;-1.706;2022-12-07T16:18:39;4.60;99.90
16825;DHT22;8529;48.108;-1.706;2022-12-07T16:21:06;4.50;99.90